createdAt,value
2023-05-20T00:01:52.385Z,2.00
2023-05-20T00:04:24.155Z,2.10
2023-05-20T00:06:51.348Z,1.80
2023-05-20T00:09:22.679Z,2.70
2023-05-20T00:11:52.121Z,1.70
2023-05-20T00:14:21.606Z,1.87
2023-05-20T00:16:48.648Z,1.53
2023-05-20T00:19:18.111Z,2.43
2023-05-20T00:21:47.041Z,2.17
2023-05-20T00:24:15.912Z,1.60
2023-05-20T00:26:43.278Z,2.23
2023-05-20T00:29:10.181Z,2.73
2023-05-20T00:31:42.117Z,2.90
2023-05-20T00:34:11.505Z,2.73
2023-05-20T00:36:43.252Z,3.90
2023-05-20T00:39:10.194Z,3.73
2023-05-20T00:41:41.934Z,2.83
2023-05-20T00:44:11.920Z,2.97
2023-05-20T00:46:41.213Z,1.80
2023-05-20T00:49:13.817Z,1.67
2023-05-20T00:51:43.093Z,9.60
2023-05-20T00:54:10.815Z,1.93
2023-05-20T00:56:38.127Z,2.10
2023-05-20T00:59:05.676Z,3.37
2023-05-20T01:01:32.832Z,2.83
2023-05-20T01:04:05.434Z,3.33
2023-05-20T01:06:33.706Z,1.80
2023-05-20T01:09:05.715Z,2.83
2023-05-20T01:11:44.358Z,1.53
2023-05-20T01:14:18.153Z,2.63
2023-05-20T01:16:48.095Z,2.10
2023-05-20T01:19:35.357Z,1.93
2023-05-20T01:22:12.663Z,1.60
2023-05-20T01:24:49.337Z,2.07
2023-05-20T01:27:25.725Z,1.93
2023-05-20T01:29:53.539Z,2.00
2023-05-20T01:32:28.512Z,3.47
2023-05-20T01:34:59.989Z,2.00
2023-05-20T01:37:31.342Z,1.90
2023-05-20T01:39:59.497Z,2.33
2023-05-20T01:42:33.011Z,3.50
2023-05-20T01:45:00.705Z,2.20
2023-05-20T01:47:30.215Z,1.90
2023-05-20T01:49:59.821Z,2.17
2023-05-20T01:52:27.668Z,2.30
2023-05-20T01:54:54.627Z,2.73
2023-05-20T01:57:25.907Z,2.47
2023-05-20T01:59:58.085Z,1.67
2023-05-20T02:02:27.501Z,2.03
2023-05-20T02:04:58.875Z,2.07
2023-05-20T02:07:27.873Z,2.73
2023-05-20T02:09:57.050Z,1.73
2023-05-20T02:12:30.731Z,1.97
2023-05-20T02:14:58.109Z,2.00
2023-05-20T02:17:29.608Z,2.63
2023-05-20T02:20:01.386Z,1.83
2023-05-20T02:22:33.027Z,2.00
2023-05-20T02:25:07.215Z,2.13
2023-05-20T02:27:40.535Z,2.10
2023-05-20T02:30:10.725Z,1.90
2023-05-20T02:32:38.186Z,2.03
2023-05-20T02:35:07.825Z,2.03
2023-05-20T02:37:38.981Z,1.90
2023-05-20T02:40:09.160Z,2.20
2023-05-20T02:42:41.164Z,2.37
2023-05-20T02:45:11.602Z,2.37
2023-05-20T02:47:39.109Z,1.97
2023-05-20T02:50:11.990Z,3.77
2023-05-20T02:52:42.271Z,2.90
2023-05-20T02:55:10.001Z,3.00
2023-05-20T02:57:41.846Z,3.57
2023-05-20T03:00:14.663Z,2.30
2023-05-20T03:02:43.995Z,2.17
2023-05-20T03:05:11.084Z,2.00
2023-05-20T03:07:40.652Z,2.47
2023-05-20T03:10:09.379Z,2.00
2023-05-20T03:12:39.019Z,2.40
2023-05-20T03:15:12.681Z,2.90
2023-05-20T03:17:39.769Z,1.93
2023-05-20T03:20:07.970Z,2.30
2023-05-20T03:22:36.996Z,2.47
2023-05-20T03:25:07.495Z,2.77
2023-05-20T03:27:39.068Z,3.53
2023-05-20T03:30:07.204Z,2.47
2023-05-20T03:32:34.155Z,2.50
2023-05-20T03:35:03.279Z,2.13
2023-05-20T03:37:32.902Z,2.23
2023-05-20T03:40:02.166Z,2.70
2023-05-20T03:42:29.797Z,2.90
2023-05-20T03:44:57.245Z,1.93
2023-05-20T03:47:27.624Z,3.13
2023-05-20T03:49:56.861Z,2.10
2023-05-20T03:52:23.698Z,2.53
2023-05-20T03:54:52.672Z,5.50
2023-05-20T03:57:22.509Z,2.43
2023-05-20T03:59:51.751Z,1.90
2023-05-20T04:02:18.853Z,4.27
2023-05-20T04:04:48.370Z,2.77
2023-05-20T04:07:17.792Z,2.53
2023-05-20T04:09:46.969Z,2.40
2023-05-20T04:12:13.955Z,5.27
2023-05-20T04:14:43.365Z,2.43
2023-05-20T04:17:14.778Z,2.53
2023-05-20T04:19:41.771Z,2.40
2023-05-20T04:22:16.765Z,2.83
2023-05-20T04:24:43.674Z,2.93
2023-05-20T04:27:11.057Z,2.93
2023-05-20T04:29:41.516Z,2.70
2023-05-20T04:32:10.927Z,2.63
2023-05-20T04:34:40.548Z,3.13
2023-05-20T04:37:10.211Z,2.70
2023-05-20T04:39:38.780Z,2.20
2023-05-20T04:42:11.576Z,3.30
2023-05-20T04:44:40.669Z,2.27
2023-05-20T04:47:12.009Z,2.47
2023-05-20T04:49:39.421Z,2.43
2023-05-20T04:52:09.783Z,2.70
2023-05-20T04:54:41.746Z,3.03
2023-05-20T04:57:09.898Z,2.93
2023-05-20T04:59:39.122Z,3.07
2023-05-20T05:02:08.540Z,3.13
2023-05-20T05:04:42.464Z,2.80
2023-05-20T05:07:09.555Z,3.77
2023-05-20T05:09:36.536Z,4.63
2023-05-20T05:12:05.919Z,4.10
2023-05-20T05:14:33.048Z,3.80
2023-05-20T05:17:02.657Z,2.63
2023-05-20T05:19:29.600Z,2.80
2023-05-20T05:21:59.053Z,3.30
2023-05-20T05:24:25.913Z,3.87
2023-05-20T05:26:56.155Z,2.70
2023-05-20T05:29:28.572Z,2.90
2023-05-20T05:31:58.077Z,2.80
2023-05-20T05:34:25.366Z,2.63
2023-05-20T05:36:54.780Z,2.83
2023-05-20T05:39:21.686Z,2.50
2023-05-20T05:41:48.580Z,2.70
2023-05-20T05:44:20.583Z,3.03
2023-05-20T05:46:47.517Z,3.27
2023-05-20T05:49:14.559Z,2.67
2023-05-20T05:51:44.029Z,3.37
2023-05-20T05:54:13.652Z,2.73
2023-05-20T05:56:47.915Z,5.23
2023-05-20T05:59:19.612Z,2.50
2023-05-20T06:01:48.768Z,4.27
2023-05-20T06:04:20.780Z,5.17
2023-05-20T06:06:52.277Z,3.80
2023-05-20T06:09:20.594Z,3.23
2023-05-20T06:11:52.246Z,3.47
2023-05-20T06:14:19.182Z,2.97
2023-05-20T06:16:46.553Z,3.13
2023-05-20T06:19:20.410Z,4.43
2023-05-20T06:21:47.372Z,3.87
2023-05-20T06:24:18.669Z,2.97
2023-05-20T06:26:49.828Z,3.13
2023-05-20T06:29:16.844Z,3.87
2023-05-20T06:31:44.538Z,3.77
2023-05-20T06:34:11.448Z,3.47
2023-05-20T06:36:43.938Z,3.10
2023-05-20T06:39:13.356Z,3.80
2023-05-20T06:41:48.359Z,3.53
2023-05-20T06:44:30.440Z,3.43
2023-05-20T06:47:21.911Z,3.00
2023-05-20T06:49:51.188Z,3.27
2023-05-20T06:52:22.822Z,3.73
2023-05-20T06:54:55.030Z,5.63
2023-05-20T06:57:24.515Z,3.73
2023-05-20T06:59:51.846Z,4.50
2023-05-20T07:02:25.423Z,4.10
2023-05-20T07:04:55.402Z,4.43
2023-05-20T07:07:26.606Z,4.93
2023-05-20T07:09:55.155Z,4.13
2023-05-20T07:12:24.668Z,3.30
2023-05-20T07:14:54.175Z,3.53
2023-05-20T07:17:21.565Z,4.13
2023-05-20T07:19:48.478Z,3.83
2023-05-20T07:22:18.024Z,4.20
2023-05-20T07:24:59.419Z,4.20
2023-05-20T07:27:26.497Z,4.90
2023-05-20T07:29:53.325Z,4.27
2023-05-20T07:32:25.099Z,4.30
2023-05-20T07:34:52.150Z,4.07
2023-05-20T07:37:19.235Z,4.47
2023-05-20T07:39:48.888Z,4.23
2023-05-20T07:42:16.104Z,4.77
2023-05-20T07:44:48.989Z,5.70
2023-05-20T07:47:15.852Z,4.20
2023-05-20T07:49:47.780Z,5.73
2023-05-20T07:52:16.897Z,4.07
2023-05-20T07:54:43.849Z,4.83
2023-05-20T07:57:11.844Z,4.53
2023-05-20T07:59:48.246Z,4.77
2023-05-20T08:02:19.208Z,5.17
2023-05-20T08:04:49.636Z,3.97
2023-05-20T08:07:22.640Z,4.27
2023-05-20T08:09:55.706Z,4.57
2023-05-20T08:12:29.390Z,4.43
2023-05-20T08:15:00.087Z,5.20
2023-05-20T08:17:29.977Z,6.03
2023-05-20T08:19:59.150Z,5.07
2023-05-20T08:22:31.383Z,4.63
2023-05-20T08:25:08.086Z,5.40
2023-05-20T08:27:37.543Z,5.33
2023-05-20T08:30:10.730Z,4.60
2023-05-20T08:32:40.207Z,4.83
2023-05-20T08:35:08.179Z,4.33
2023-05-20T08:37:42.006Z,5.07
2023-05-20T08:40:13.072Z,4.40
2023-05-20T08:42:44.488Z,5.10
2023-05-20T08:45:14.556Z,4.97
2023-05-20T08:47:46.156Z,5.30
2023-05-20T08:50:14.991Z,4.63
2023-05-20T08:52:54.045Z,5.63
2023-05-20T08:55:37.570Z,4.83
2023-05-20T08:58:09.412Z,4.67
2023-05-20T09:00:37.389Z,4.90
2023-05-20T09:03:11.661Z,4.83
2023-05-20T09:05:43.020Z,5.30
2023-05-20T09:08:15.700Z,5.73
2023-05-20T09:10:43.112Z,4.97
2023-05-20T09:13:15.293Z,4.40
2023-05-20T09:15:44.258Z,4.90
2023-05-20T09:18:13.729Z,4.90
2023-05-20T09:20:41.402Z,4.63
2023-05-20T09:23:12.594Z,4.50
2023-05-20T09:25:39.842Z,4.37
2023-05-20T09:28:13.334Z,5.13
2023-05-20T09:30:45.199Z,4.20
2023-05-20T09:33:15.376Z,4.43
2023-05-20T09:35:42.306Z,5.27
2023-05-20T09:38:12.617Z,5.00
2023-05-20T09:40:45.869Z,4.90
2023-05-20T09:43:20.447Z,7.40
2023-05-20T09:45:50.037Z,4.73
2023-05-20T09:48:22.268Z,5.03
2023-05-20T09:50:52.351Z,4.60
2023-05-20T09:53:23.131Z,5.20
2023-05-20T09:55:54.530Z,4.73
2023-05-20T09:58:22.821Z,4.97
2023-05-20T10:00:49.894Z,5.17
2023-05-20T10:03:25.026Z,5.63
2023-05-20T10:06:12.588Z,4.50
2023-05-20T10:09:09.037Z,4.70
2023-05-20T10:12:07.581Z,5.20
2023-05-20T10:15:05.370Z,5.07
2023-05-20T10:17:46.748Z,5.17
2023-05-20T10:20:16.415Z,4.60
2023-05-20T10:22:58.622Z,5.30
2023-05-20T10:25:28.358Z,6.20
2023-05-20T10:28:16.128Z,5.50
2023-05-20T10:30:51.043Z,4.83
2023-05-20T10:33:20.811Z,5.47
2023-05-20T10:35:53.091Z,5.23
2023-05-20T10:38:22.203Z,4.97
2023-05-20T10:40:49.092Z,6.20
2023-05-20T10:43:30.973Z,4.87
2023-05-20T10:46:07.463Z,4.60
2023-05-20T10:48:47.420Z,4.70
2023-05-20T10:51:15.374Z,5.43
2023-05-20T10:53:49.219Z,6.03
2023-05-20T10:56:24.422Z,4.37
2023-05-20T10:58:57.726Z,4.53
2023-05-20T11:01:27.193Z,5.43
2023-05-20T11:03:57.073Z,4.83
2023-05-20T11:06:28.545Z,4.67
2023-05-20T11:08:56.290Z,4.67
2023-05-20T11:11:26.393Z,4.70
2023-05-20T11:13:57.601Z,4.47
2023-05-20T11:16:27.777Z,4.37
2023-05-20T11:18:59.816Z,4.80
2023-05-20T11:21:26.823Z,4.40
2023-05-20T11:23:56.648Z,4.73
2023-05-20T11:26:25.920Z,4.90
2023-05-20T11:28:53.235Z,4.63
2023-05-20T11:31:24.470Z,5.33
2023-05-20T11:33:52.765Z,5.10
2023-05-20T11:36:27.951Z,4.60
2023-05-20T11:38:58.996Z,4.57
2023-05-20T11:41:27.868Z,4.87
2023-05-20T11:44:03.301Z,4.50
2023-05-20T11:46:32.700Z,4.20
2023-05-20T11:49:02.637Z,4.63
2023-05-20T11:51:32.894Z,4.37
2023-05-20T11:54:04.084Z,4.80
2023-05-20T11:56:41.375Z,4.67
2023-05-20T11:59:10.713Z,4.60
2023-05-20T12:01:43.651Z,4.50
2023-05-20T12:04:13.164Z,7.53
2023-05-20T12:06:45.766Z,5.50
2023-05-20T12:09:16.274Z,4.17
2023-05-20T12:11:45.665Z,4.43
2023-05-20T12:14:16.963Z,4.53
2023-05-20T12:16:46.059Z,4.67
2023-05-20T12:19:18.461Z,5.27
2023-05-20T12:21:52.653Z,5.67
2023-05-20T12:24:21.903Z,5.27
2023-05-20T12:26:48.736Z,4.47
2023-05-20T12:29:20.429Z,4.47
2023-05-20T12:31:49.639Z,5.70
2023-05-20T12:34:21.204Z,4.93
2023-05-20T12:36:48.414Z,4.97
2023-05-20T12:39:17.705Z,5.23
2023-05-20T12:41:46.889Z,4.93
2023-05-20T12:44:15.958Z,5.40
2023-05-20T12:46:48.427Z,4.30
2023-05-20T12:49:20.130Z,5.20
2023-05-20T12:51:47.075Z,5.30
2023-05-20T12:54:17.739Z,6.03
2023-05-20T12:56:47.476Z,5.07
2023-05-20T12:59:19.087Z,5.13
2023-05-20T13:01:50.933Z,5.93
2023-05-20T13:04:19.985Z,5.50
2023-05-20T13:06:49.217Z,4.60
2023-05-20T13:09:16.147Z,5.07
2023-05-20T13:11:43.039Z,4.80
2023-05-20T13:14:14.782Z,5.03
2023-05-20T13:16:50.017Z,4.70
2023-05-20T13:19:19.514Z,5.33
2023-05-20T13:21:56.610Z,5.10
2023-05-20T13:24:25.835Z,5.30
2023-05-20T13:26:52.681Z,4.73
2023-05-20T13:29:19.648Z,4.97
2023-05-20T13:31:52.098Z,4.87
2023-05-20T13:34:26.422Z,4.70
2023-05-20T13:36:55.791Z,4.60
2023-05-20T13:39:22.692Z,4.43
2023-05-20T13:41:55.013Z,5.20
2023-05-20T13:44:22.100Z,5.00
2023-05-20T13:46:49.088Z,4.93
2023-05-20T13:49:18.648Z,5.27
2023-05-20T13:51:47.617Z,4.07
2023-05-20T13:54:23.131Z,7.33
2023-05-20T13:56:52.880Z,5.17
2023-05-20T13:59:20.366Z,5.07
2023-05-20T14:01:53.817Z,5.20
2023-05-20T14:04:20.802Z,5.07
2023-05-20T14:06:49.895Z,5.50
2023-05-20T14:09:19.021Z,5.33
2023-05-20T14:11:48.607Z,5.90
2023-05-20T14:14:15.741Z,6.17
2023-05-20T14:16:46.915Z,5.57
2023-05-20T14:19:14.003Z,5.53
2023-05-20T14:21:42.929Z,5.13
2023-05-20T14:24:09.886Z,5.70
2023-05-20T14:26:39.270Z,4.90
2023-05-20T14:29:11.150Z,5.50
2023-05-20T14:31:39.293Z,5.37
2023-05-20T14:34:09.445Z,6.93
2023-05-20T14:36:39.565Z,5.37
2023-05-20T14:39:11.744Z,5.67
2023-05-20T14:41:38.742Z,5.20
2023-05-20T14:44:05.936Z,5.50
2023-05-20T14:46:33.062Z,5.40
2023-05-20T14:49:00.740Z,5.00
2023-05-20T14:51:31.413Z,4.50
2023-05-20T14:53:58.386Z,5.13
2023-05-20T14:56:29.423Z,5.40
2023-05-20T14:58:56.395Z,5.43
2023-05-20T15:01:23.342Z,5.60
2023-05-20T15:03:52.521Z,4.67
2023-05-20T15:06:19.632Z,5.20
2023-05-20T15:08:48.897Z,5.27
2023-05-20T15:11:18.390Z,6.13
2023-05-20T15:13:46.463Z,5.00
2023-05-20T15:16:15.886Z,5.20
2023-05-20T15:18:48.485Z,5.30
2023-05-20T15:21:17.899Z,4.70
2023-05-20T15:23:47.205Z,4.80
2023-05-20T15:26:14.148Z,4.20
2023-05-20T15:28:41.189Z,8.57
2023-05-20T15:31:08.387Z,6.30
2023-05-20T15:33:37.567Z,4.57
2023-05-20T15:36:07.369Z,6.53
2023-05-20T15:38:34.191Z,4.97
2023-05-20T15:41:01.119Z,5.40
2023-05-20T15:43:32.847Z,4.57
2023-05-20T15:46:07.365Z,5.17
2023-05-20T15:48:34.868Z,4.47
2023-05-20T15:51:06.902Z,4.93
2023-05-20T15:53:38.139Z,5.97
2023-05-20T15:56:07.881Z,5.20
2023-05-20T15:58:34.772Z,5.13
2023-05-20T16:01:04.912Z,5.23
2023-05-20T16:03:33.873Z,5.60
2023-05-20T16:06:02.775Z,5.10
2023-05-20T16:08:29.686Z,5.73
2023-05-20T16:10:59.558Z,5.40
2023-05-20T16:13:26.670Z,5.17
2023-05-20T16:15:57.450Z,5.20
2023-05-20T16:18:30.455Z,5.30
2023-05-20T16:20:58.179Z,10.73
2023-05-20T16:23:25.404Z,5.23
2023-05-20T16:25:54.582Z,6.27
2023-05-20T16:28:25.367Z,5.47
2023-05-20T16:30:53.046Z,5.70
2023-05-20T16:33:19.919Z,5.30
2023-05-20T16:35:49.177Z,6.07
2023-05-20T16:38:18.538Z,5.57
2023-05-20T16:40:47.894Z,5.30
2023-05-20T16:43:15.212Z,5.93
2023-05-20T16:45:44.626Z,6.77
2023-05-20T16:48:13.841Z,6.33
2023-05-20T16:50:43.161Z,5.50
2023-05-20T16:53:16.433Z,5.97
2023-05-20T16:55:46.014Z,5.67
2023-05-20T16:58:12.893Z,5.57
2023-05-20T17:00:42.059Z,5.93
2023-05-20T17:03:09.046Z,5.97
2023-05-20T17:05:38.333Z,5.53
2023-05-20T17:08:09.590Z,5.43
2023-05-20T17:10:44.488Z,7.10
2023-05-20T17:13:11.425Z,9.07
2023-05-20T17:15:42.813Z,4.77
2023-05-20T17:18:12.130Z,6.83
2023-05-20T17:20:41.238Z,5.87
2023-05-20T17:23:10.248Z,6.27
2023-05-20T17:25:39.475Z,6.43
2023-05-20T17:28:08.877Z,7.30
2023-05-20T17:30:38.409Z,6.50
2023-05-20T17:33:07.765Z,6.37
2023-05-20T17:35:41.492Z,6.17
2023-05-20T17:38:10.962Z,6.73
2023-05-20T17:40:42.473Z,6.30
2023-05-20T17:43:11.618Z,6.50
2023-05-20T17:45:38.489Z,7.00
2023-05-20T17:48:10.744Z,6.70
2023-05-20T17:50:43.827Z,6.47
2023-05-20T17:53:19.661Z,6.77
2023-05-20T17:55:49.454Z,7.07
2023-05-20T17:58:22.185Z,6.90
2023-05-20T18:00:52.275Z,6.33
2023-05-20T18:03:22.801Z,7.03
2023-05-20T18:05:55.101Z,8.47
2023-05-20T18:08:25.196Z,7.23
2023-05-20T18:10:52.816Z,7.17
2023-05-20T18:13:24.490Z,7.23
2023-05-20T18:15:52.569Z,8.10
2023-05-20T18:18:21.684Z,7.17
2023-05-20T18:20:48.623Z,7.03
2023-05-20T18:23:21.295Z,8.80
2023-05-20T18:25:50.726Z,8.13
2023-05-20T18:28:22.383Z,7.27
2023-05-20T18:30:51.745Z,7.83
2023-05-20T18:33:24.449Z,8.10
2023-05-20T18:35:54.305Z,7.87
2023-05-20T18:38:26.352Z,8.30
2023-05-20T18:40:53.324Z,7.90
2023-05-20T18:43:20.459Z,7.60
2023-05-20T18:45:54.869Z,7.27
2023-05-20T18:48:27.010Z,7.57
2023-05-20T18:50:56.166Z,9.53
2023-05-20T18:53:27.885Z,7.87
2023-05-20T18:56:01.243Z,7.77
2023-05-20T18:58:32.917Z,7.97
2023-05-20T19:01:02.316Z,7.77
2023-05-20T19:03:29.439Z,7.90
2023-05-20T19:05:58.805Z,8.47
2023-05-20T19:08:28.175Z,7.30
2023-05-20T19:10:57.595Z,8.00
2023-05-20T19:13:26.655Z,7.93
2023-05-20T19:15:57.830Z,8.17
2023-05-20T19:18:30.389Z,8.83
2023-05-20T19:20:57.289Z,8.93
2023-05-20T19:23:24.121Z,8.97
2023-05-20T19:25:53.514Z,7.90
2023-05-20T19:28:22.745Z,8.83
2023-05-20T19:30:51.876Z,8.70
2023-05-20T19:33:18.861Z,8.53
2023-05-20T19:35:46.138Z,8.60
2023-05-20T19:38:16.292Z,8.37
2023-05-20T19:40:44.962Z,9.47
2023-05-20T19:43:11.849Z,8.63
2023-05-20T19:45:38.871Z,9.00
2023-05-20T19:48:06.853Z,8.13
2023-05-20T19:50:34.367Z,10.10
2023-05-20T19:53:07.463Z,8.17
2023-05-20T19:55:38.609Z,9.87
2023-05-20T19:58:06.036Z,8.60
2023-05-20T20:00:36.204Z,10.10
2023-05-20T20:03:03.987Z,9.30
2023-05-20T20:05:31.007Z,12.13
2023-05-20T20:08:00.606Z,9.60
2023-05-20T20:10:35.117Z,9.20
2023-05-20T20:13:02.128Z,8.40
2023-05-20T20:15:33.981Z,8.80
2023-05-20T20:18:06.490Z,9.07
2023-05-20T20:20:40.024Z,9.93
2023-05-20T20:23:11.653Z,8.50
2023-05-20T20:25:42.865Z,8.97
2023-05-20T20:28:11.084Z,8.80
2023-05-20T20:30:38.268Z,9.03
2023-05-20T20:33:07.030Z,8.00
2023-05-20T20:35:39.337Z,8.03
2023-05-20T20:38:09.665Z,8.70
2023-05-20T20:40:47.105Z,8.87
2023-05-20T20:43:19.828Z,9.53
2023-05-20T20:45:50.918Z,8.67
2023-05-20T20:48:20.132Z,8.47
2023-05-20T20:50:49.596Z,8.60
2023-05-20T20:53:19.057Z,8.60
2023-05-20T20:55:51.123Z,8.27
2023-05-20T20:58:18.161Z,8.53
2023-05-20T21:00:49.600Z,8.90
2023-05-20T21:03:23.709Z,9.70
2023-05-20T21:05:53.575Z,8.23
2023-05-20T21:08:22.161Z,8.17
2023-05-20T21:10:54.768Z,9.00
2023-05-20T21:13:21.823Z,8.87
2023-05-20T21:15:51.020Z,8.13
2023-05-20T21:18:21.798Z,8.17
2023-05-20T21:20:53.995Z,9.67
2023-05-20T21:23:26.163Z,8.93
2023-05-20T21:25:55.049Z,9.63
2023-05-20T21:28:21.964Z,8.13
2023-05-20T21:30:49.022Z,8.17
2023-05-20T21:33:15.945Z,9.67
2023-05-20T21:35:45.339Z,8.10
2023-05-20T21:38:16.926Z,7.73
2023-05-20T21:40:48.493Z,8.10
2023-05-20T21:43:20.692Z,8.10
2023-05-20T21:45:52.333Z,7.17
2023-05-20T21:48:21.466Z,7.80
2023-05-20T21:50:50.596Z,11.13
2023-05-20T21:53:20.048Z,9.07
2023-05-20T21:55:49.120Z,9.97
2023-05-20T21:58:19.087Z,10.27
2023-05-20T22:00:48.131Z,8.80
2023-05-20T22:03:15.170Z,8.30
2023-05-20T22:05:46.200Z,8.70
2023-05-20T22:08:16.865Z,10.50
2023-05-20T22:10:48.229Z,8.63
2023-05-20T22:13:21.476Z,9.90
2023-05-20T22:15:51.603Z,7.97
2023-05-20T22:18:19.190Z,7.67
2023-05-20T22:20:50.997Z,9.30
2023-05-20T22:23:24.949Z,10.87
2023-05-20T22:25:52.113Z,9.80
2023-05-20T22:28:21.455Z,10.53
2023-05-20T22:30:48.345Z,9.40
2023-05-20T22:33:15.298Z,9.27
2023-05-20T22:35:45.275Z,8.17
2023-05-20T22:38:12.177Z,8.53
2023-05-20T22:40:41.554Z,7.87
2023-05-20T22:43:08.462Z,13.93
2023-05-20T22:45:38.011Z,8.33
2023-05-20T22:48:05.632Z,7.97
2023-05-20T22:50:35.596Z,7.67
2023-05-20T22:53:07.459Z,7.93
2023-05-20T22:55:34.656Z,8.43
2023-05-20T22:58:03.943Z,7.57
2023-05-20T23:00:33.406Z,9.43
2023-05-20T23:03:00.532Z,8.43
2023-05-20T23:05:30.202Z,7.20
2023-05-20T23:07:59.716Z,8.53
2023-05-20T23:10:26.585Z,7.73
2023-05-20T23:12:53.455Z,10.57
2023-05-20T23:15:25.103Z,7.57
2023-05-20T23:17:54.494Z,7.63
2023-05-20T23:20:22.218Z,8.53
2023-05-20T23:22:49.180Z,7.50
2023-05-20T23:25:21.882Z,8.27
2023-05-20T23:27:56.033Z,7.60
2023-05-20T23:30:30.345Z,7.97
2023-05-20T23:32:57.730Z,8.43
2023-05-20T23:35:30.165Z,7.83
2023-05-20T23:37:59.844Z,8.37
2023-05-20T23:40:31.294Z,7.10
2023-05-20T23:42:58.206Z,7.23
2023-05-20T23:45:28.552Z,8.77
2023-05-20T23:47:55.662Z,8.70
2023-05-20T23:50:32.505Z,7.77
2023-05-20T23:52:59.492Z,7.70
2023-05-20T23:55:28.325Z,8.10
2023-05-20T23:57:57.898Z,8.53
